Time;durP1;ratioP1;P1;durP2;ratioP2;P2;SDS_P1;SDS_P2;PMS_P1;PMS_P2;Temp;Humidity;BMP_temperature;BMP_pressure;BME280_temperature;BME280_humidity;BME280_pressure;Samples;Min_cycle;Max_cycle;Signal;HPM_P1;HPM_P2
2022/09/22 00:03:39;;;;;;;3.80;3.00;;;7.60;99.90;;;;;;8380536;28;20626;-68
2022/09/22 00:07:40;;;;;;;4.57;3.23;;;7.50;99.90;;;;;;8382520;28;20181;-68
2022/09/22 00:11:43;;;;;;;3.77;2.93;;;7.50;99.90;;;;;;8380010;28;20239;-68
2022/09/22 00:15:45;;;;;;;3.63;2.93;;;7.40;99.90;;;;;;8380704;28;20669;-69
2022/09/22 00:19:45;;;;;;;3.87;2.90;;;7.40;99.90;;;;;;8379481;28;20249;-68
2022/09/22 00:23:47;;;;;;;3.70;3.27;;;7.50;99.90;;;;;;8380493;28;20208;-68
2022/09/22 00:27:53;;;;;;;3.47;3.10;;;7.50;99.90;;;;;;8375652;28;20265;-67
2022/09/22 00:31:54;;;;;;;4.00;3.60;;;7.60;99.90;;;;;;8379758;28;20185;-69
2022/09/22 00:35:59;;;;;;;4.23;3.57;;;7.60;99.90;;;;;;8378835;28;20453;-67
2022/09/22 00:40:00;;;;;;;4.37;3.43;;;7.70;99.90;;;;;;8379678;28;20823;-69
2022/09/22 00:44:20;;;;;;;7.67;4.53;;;7.70;99.90;;;;;;8381166;28;20184;-67
2022/09/22 00:48:23;;;;;;;5.87;4.10;;;7.80;99.90;;;;;;8369453;28;20213;-67
2022/09/22 00:52:39;;;;;;;4.57;3.97;;;7.80;99.90;;;;;;8378786;28;20253;-68
2022/09/22 00:56:53;;;;;;;5.07;3.17;;;7.80;99.90;;;;;;8380016;28;20189;-67
2022/09/22 01:00:55;;;;;;;3.97;3.03;;;7.70;99.90;;;;;;8375953;28;20181;-68
2022/09/22 01:04:56;;;;;;;4.67;3.53;;;7.60;99.90;;;;;;8378894;28;20257;-68
2022/09/22 01:08:58;;;;;;;4.87;3.70;;;7.60;99.90;;;;;;8380139;28;20185;-67
2022/09/22 01:13:19;;;;;;;4.93;4.43;;;7.60;99.90;;;;;;8381451;28;20260;-68
2022/09/22 01:17:26;;;;;;;4.73;3.30;;;7.60;99.90;;;;;;8377868;28;20606;-67
2022/09/22 01:21:50;;;;;;;4.07;3.40;;;7.60;99.90;;;;;;8376706;28;20221;-69
2022/09/22 01:26:01;;;;;;;3.70;3.03;;;7.60;99.90;;;;;;8382469;28;20188;-67
2022/09/22 01:30:22;;;;;;;3.47;2.90;;;7.70;99.90;;;;;;8400557;28;20609;-67
2022/09/22 01:34:31;;;;;;;4.70;2.93;;;7.70;99.90;;;;;;8382930;28;20212;-68
2022/09/22 01:38:49;;;;;;;4.80;2.70;;;7.70;99.90;;;;;;8383226;28;20181;-68
2022/09/22 01:43:12;;;;;;;3.17;2.70;;;7.70;99.90;;;;;;8383104;28;20188;-68
2022/09/22 01:47:19;;;;;;;4.80;3.30;;;7.80;99.90;;;;;;8383342;28;20188;-68
2022/09/22 01:51:29;;;;;;;4.57;3.50;;;7.80;99.90;;;;;;8385933;28;20190;-67
2022/09/22 01:55:37;;;;;;;3.27;2.67;;;7.70;99.90;;;;;;8385252;28;20236;-68
2022/09/22 01:59:39;;;;;;;3.70;2.80;;;7.60;99.90;;;;;;8399767;28;20527;-67
2022/09/22 02:03:55;;;;;;;3.13;2.50;;;7.50;99.90;;;;;;8384965;28;20187;-68
2022/09/22 02:07:59;;;;;;;3.93;3.00;;;7.50;99.90;;;;;;8379301;28;20189;-68
2022/09/22 02:12:02;;;;;;;4.03;3.10;;;7.40;99.90;;;;;;8385320;28;20216;-68
2022/09/22 02:16:04;;;;;;;5.33;3.67;;;7.40;99.90;;;;;;8381024;28;20212;-68
2022/09/22 02:20:05;;;;;;;4.67;2.77;;;7.30;99.90;;;;;;8400861;28;20192;-67
2022/09/22 02:24:06;;;;;;;3.63;3.17;;;7.20;99.90;;;;;;8383084;28;20197;-68
2022/09/22 02:28:09;;;;;;;3.17;2.30;;;7.10;99.90;;;;;;8384551;28;20485;-68
2022/09/22 02:32:14;;;;;;;4.23;2.73;;;7.10;99.90;;;;;;8396903;28;20212;-68
2022/09/22 02:36:39;;;;;;;4.70;3.00;;;7.10;99.90;;;;;;8383655;28;20209;-67
2022/09/22 02:40:47;;;;;;;3.33;2.80;;;7.10;99.90;;;;;;8381781;28;20207;-67
2022/09/22 02:45:08;;;;;;;2.80;2.60;;;7.20;99.90;;;;;;8375976;28;20203;-68
2022/09/22 02:49:13;;;;;;;3.47;2.70;;;7.20;99.90;;;;;;8381874;28;20260;-67
2022/09/22 02:53:16;;;;;;;3.00;2.70;;;7.10;99.90;;;;;;8383240;28;20224;-67
2022/09/22 02:57:17;;;;;;;3.57;2.97;;;7.00;99.90;;;;;;8385678;28;20196;-67
2022/09/22 03:01:18;;;;;;;4.93;3.47;;;6.90;99.90;;;;;;8386290;28;20468;-67
2022/09/22 03:05:19;;;;;;;5.77;3.60;;;6.90;99.90;;;;;;8379200;28;20189;-67
2022/09/22 03:09:20;;;;;;;4.57;3.70;;;6.90;99.90;;;;;;8377381;28;20292;-67
2022/09/22 03:13:20;;;;;;;4.53;3.47;;;7.00;99.90;;;;;;8382667;28;20224;-68
2022/09/22 03:17:21;;;;;;;2.70;2.40;;;6.90;99.90;;;;;;8384063;28;20212;-67
2022/09/22 03:21:22;;;;;;;5.60;3.23;;;6.80;99.90;;;;;;8384287;28;20184;-68
2022/09/22 03:25:23;;;;;;;5.50;3.47;;;6.70;99.90;;;;;;8382931;28;20207;-68
2022/09/22 03:29:24;;;;;;;6.97;3.47;;;6.70;99.90;;;;;;8379604;28;20189;-68
2022/09/22 03:33:25;;;;;;;3.63;3.30;;;6.60;99.90;;;;;;8382467;28;20212;-71
2022/09/22 03:37:26;;;;;;;5.40;4.07;;;6.60;99.90;;;;;;8381377;28;20276;-68
2022/09/22 03:41:27;;;;;;;10.63;4.57;;;6.70;99.90;;;;;;8384040;28;20192;-68
2022/09/22 03:45:28;;;;;;;4.67;4.00;;;6.70;99.90;;;;;;8382132;28;20188;-67
2022/09/22 03:49:30;;;;;;;6.23;3.77;;;6.80;99.90;;;;;;8382627;28;20185;-68
2022/09/22 03:53:31;;;;;;;3.40;3.00;;;6.80;99.90;;;;;;8378975;28;20201;-68
2022/09/22 03:57:32;;;;;;;3.53;2.83;;;6.70;99.90;;;;;;8381605;28;20189;-68
2022/09/22 04:01:33;;;;;;;3.73;2.77;;;6.60;99.90;;;;;;8371867;28;20181;-68
2022/09/22 04:05:34;;;;;;;4.13;3.17;;;6.60;99.90;;;;;;8376814;28;20193;-68
2022/09/22 04:09:35;;;;;;;2.87;2.63;;;6.50;99.90;;;;;;8380242;28;20185;-69
2022/09/22 04:13:35;;;;;;;3.80;2.97;;;6.40;99.90;;;;;;8393030;28;20221;-68
2022/09/22 04:17:37;;;;;;;3.90;2.57;;;6.30;99.90;;;;;;8379537;28;20192;-72
2022/09/22 04:21:38;;;;;;;3.00;2.50;;;6.20;99.90;;;;;;8380919;28;20184;-68
2022/09/22 04:25:38;;;;;;;3.47;2.90;;;6.10;99.90;;;;;;8380737;28;20180;-68
2022/09/22 04:29:39;;;;;;;3.80;2.67;;;6.10;99.90;;;;;;8382202;28;20185;-68
2022/09/22 04:33:40;;;;;;;5.60;3.47;;;6.10;99.90;;;;;;8371988;28;20213;-69
2022/09/22 04:37:41;;;;;;;3.77;2.60;;;6.10;99.90;;;;;;8386225;28;20169;-68
2022/09/22 04:41:42;;;;;;;4.43;3.17;;;6.10;99.90;;;;;;8380247;28;20183;-68
2022/09/22 04:45:47;;;;;;;3.70;2.70;;;6.10;99.90;;;;;;8383092;28;20180;-67
2022/09/22 04:49:48;;;;;;;4.33;2.90;;;6.10;99.90;;;;;;8378871;28;20181;-68
2022/09/22 04:53:49;;;;;;;3.03;2.60;;;6.00;99.90;;;;;;8382771;28;20275;-68
2022/09/22 04:57:52;;;;;;;3.43;2.53;;;5.90;99.90;;;;;;8377967;28;20181;-68
2022/09/22 05:01:53;;;;;;;4.30;2.97;;;5.90;99.90;;;;;;8373762;28;20191;-69
2022/09/22 05:05:54;;;;;;;3.50;3.03;;;5.90;99.90;;;;;;8380981;28;20458;-68
2022/09/22 05:09:55;;;;;;;3.80;3.17;;;5.90;99.90;;;;;;8370810;28;20189;-67
2022/09/22 05:13:57;;;;;;;3.70;3.10;;;5.90;99.90;;;;;;8377935;28;20220;-67
2022/09/22 05:17:58;;;;;;;3.60;2.90;;;5.90;99.90;;;;;;8372323;28;20184;-68
2022/09/22 05:21:59;;;;;;;3.83;2.63;;;5.80;99.90;;;;;;8378409;28;20262;-68
2022/09/22 05:26:00;;;;;;;3.87;3.10;;;5.80;99.90;;;;;;8369897;28;20195;-68
2022/09/22 05:30:01;;;;;;;4.13;3.00;;;5.90;99.90;;;;;;8381329;28;20185;-67
2022/09/22 05:34:02;;;;;;;2.87;2.57;;;6.00;99.90;;;;;;8378871;28;20228;-67
2022/09/22 05:38:03;;;;;;;3.33;2.70;;;6.00;99.90;;;;;;8383204;28;20234;-69
2022/09/22 05:42:04;;;;;;;3.57;2.60;;;6.10;99.90;;;;;;8381178;28;20185;-68
2022/09/22 05:46:04;;;;;;;3.23;2.93;;;6.10;99.90;;;;;;8382643;28;20192;-68
2022/09/22 05:50:07;;;;;;;5.73;3.10;;;6.30;99.90;;;;;;8384637;28;20219;-67
2022/09/22 05:54:08;;;;;;;5.50;4.03;;;6.30;99.90;;;;;;8377885;28;20205;-68
2022/09/22 05:58:13;;;;;;;4.27;3.23;;;6.40;99.90;;;;;;8383232;28;20177;-67
2022/09/22 06:02:14;;;;;;;4.57;3.57;;;6.50;99.90;;;;;;8382308;28;20499;-68
2022/09/22 06:06:15;;;;;;;5.97;4.60;;;6.50;99.90;;;;;;8381304;28;20281;-67
2022/09/22 06:10:15;;;;;;;6.37;4.57;;;6.60;99.90;;;;;;8383937;28;20189;-67
2022/09/22 06:14:16;;;;;;;5.20;4.60;;;6.70;99.90;;;;;;8383603;28;20213;-71
2022/09/22 06:18:17;;;;;;;5.90;4.80;;;6.90;99.90;;;;;;8383990;28;20181;-67
2022/09/22 06:22:18;;;;;;;5.80;5.13;;;7.10;99.90;;;;;;8380848;28;20177;-66
2022/09/22 06:26:19;;;;;;;7.43;5.10;;;7.30;99.90;;;;;;8383988;28;20220;-66
2022/09/22 06:30:20;;;;;;;10.27;7.07;;;7.50;99.90;;;;;;8387204;28;20222;-67
2022/09/22 06:34:22;;;;;;;8.57;7.20;;;7.60;99.90;;;;;;8385721;28;20209;-67
2022/09/22 06:38:23;;;;;;;9.57;7.27;;;7.80;99.90;;;;;;8383614;28;20179;-67
2022/09/22 06:42:24;;;;;;;8.83;6.30;;;8.00;99.90;;;;;;8382691;28;20177;-67
2022/09/22 06:46:27;;;;;;;6.00;5.30;;;8.20;99.90;;;;;;8382864;28;20237;-68
2022/09/22 06:50:30;;;;;;;9.77;6.87;;;8.40;99.90;;;;;;8386764;28;20280;-67
2022/09/22 06:54:31;;;;;;;13.70;10.53;;;8.60;99.90;;;;;;8384585;28;20230;-67
2022/09/22 06:58:32;;;;;;;11.10;8.40;;;8.70;99.90;;;;;;8380261;28;20173;-67
2022/09/22 07:02:34;;;;;;;13.40;8.17;;;8.90;99.90;;;;;;8383678;28;20177;-67
2022/09/22 07:06:36;;;;;;;9.50;7.33;;;9.10;99.90;;;;;;8381197;28;20214;-67
2022/09/22 07:10:37;;;;;;;8.37;6.60;;;9.20;99.90;;;;;;8382536;28;20180;-67
2022/09/22 07:14:37;;;;;;;9.10;6.00;;;9.40;99.90;;;;;;8398742;28;20228;-68
2022/09/22 07:18:40;;;;;;;6.93;6.23;;;9.70;99.90;;;;;;8380406;28;20176;-67
2022/09/22 07:22:41;;;;;;;7.93;5.53;;;9.80;99.90;;;;;;8397397;28;20185;-67
2022/09/22 07:26:42;;;;;;;6.60;5.00;;;9.90;99.90;;;;;;8386536;28;20176;-67
2022/09/22 07:30:43;;;;;;;9.00;6.20;;;9.90;99.90;;;;;;8385262;28;20205;-67
2022/09/22 07:34:44;;;;;;;9.23;5.40;;;10.00;99.90;;;;;;8382443;28;20216;-67
2022/09/22 07:38:50;;;;;;;5.70;4.60;;;10.10;99.90;;;;;;8382033;28;20175;-67
2022/09/22 07:42:51;;;;;;;6.80;5.73;;;10.40;99.90;;;;;;8382206;28;20204;-67
2022/09/22 07:46:52;;;;;;;10.07;8.30;;;10.60;99.90;;;;;;8387144;28;20196;-67
2022/09/22 07:50:53;;;;;;;6.87;4.73;;;10.80;99.90;;;;;;8379800;28;20274;-67
2022/09/22 07:54:54;;;;;;;6.50;5.10;;;11.00;99.90;;;;;;8382676;28;20212;-68
2022/09/22 07:58:55;;;;;;;7.80;3.87;;;11.20;99.90;;;;;;8382708;28;20255;-68
2022/09/22 08:02:56;;;;;;;9.83;4.07;;;11.30;99.90;;;;;;8381877;28;20189;-69
2022/09/22 08:06:57;;;;;;;9.93;4.37;;;11.40;99.90;;;;;;8380466;28;20182;-68
2022/09/22 08:11:12;;;;;;;6.20;3.37;;;11.60;99.90;;;;;;8382266;28;20181;-68
2022/09/22 08:15:12;;;;;;;3.77;2.53;;;11.90;99.90;;;;;;8379208;28;20345;-68
2022/09/22 08:19:13;;;;;;;3.40;2.30;;;12.00;99.90;;;;;;8387287;28;20177;-69
2022/09/22 08:23:14;;;;;;;4.00;2.73;;;12.00;99.90;;;;;;8383422;28;20181;-68
2022/09/22 08:27:15;;;;;;;2.87;2.53;;;12.00;99.90;;;;;;8380921;28;20184;-69
2022/09/22 08:31:21;;;;;;;15.77;7.20;;;12.20;1.00;;;;;;8381736;28;20204;-69
2022/09/22 08:35:22;;;;;;;3.77;2.20;;;12.60;3.00;;;;;;8382057;28;20291;-68
2022/09/22 08:39:23;;;;;;;2.60;1.67;;;12.80;99.90;;;;;;8381842;28;20183;-68
2022/09/22 08:43:24;;;;;;;4.87;3.00;;;13.00;81.80;;;;;;8382138;28;20212;-68
2022/09/22 08:51:59;;;;;;;2.20;1.60;;;12.90;99.90;;;;;;8383272;28;20192;-68
2022/09/22 08:56:17;;;;;;;2.73;1.50;;;13.20;66.50;;;;;;8398755;28;20278;-68
2022/09/22 09:00:19;;;;;;;1.60;1.13;;;13.80;1.00;;;;;;8380921;28;20238;-70
2022/09/22 09:04:41;;;;;;;1.13;0.90;;;14.50;1.00;;;;;;8378461;28;20192;-70
2022/09/22 09:09:19;;;;;;;3.47;1.53;;;15.20;99.90;;;;;;8382055;28;20183;-70
2022/09/22 09:13:42;;;;;;;2.70;1.20;;;15.70;99.90;;;;;;8371285;28;20262;-70
2022/09/22 09:17:46;;;;;;;1.63;1.00;;;16.50;99.90;;;;;;8378169;28;20169;-70
2022/09/22 09:21:54;;;;;;;2.10;0.90;;;16.90;99.90;;;;;;8369982;28;20177;-70
2022/09/22 09:25:55;;;;;;;1.97;1.00;;;17.50;99.90;;;;;;8377411;28;20182;-71
2022/09/22 09:30:16;;;;;;;2.20;1.00;;;18.10;99.90;;;;;;8378757;28;20185;-71
2022/09/22 09:34:20;;;;;;;3.60;0.90;;;18.40;75.50;;;;;;8377090;28;20236;-70
2022/09/22 09:38:34;;;;;;;1.53;1.10;;;18.40;59.70;;;;;;8375555;28;20212;-70
2022/09/22 09:42:35;;;;;;;3.93;1.10;;;18.40;53.90;;;;;;8378448;28;20173;-70
2022/09/22 09:46:51;;;;;;;1.80;1.10;;;18.30;46.20;;;;;;8386206;28;20550;-70
2022/09/22 09:50:52;;;;;;;1.80;1.00;;;17.40;64.20;;;;;;8382516;28;20216;-71
2022/09/22 09:54:53;;;;;;;5.93;1.80;;;17.00;81.20;;;;;;8385239;28;20216;-70
2022/09/22 10:03:32;;;;;;;3.17;2.00;;;16.50;65.60;;;;;;8382071;28;20258;-69
2022/09/22 10:08:00;;;;;;;3.40;1.47;;;15.80;99.90;;;;;;8383230;28;20183;-69
2022/09/22 10:12:05;;;;;;;1.63;1.03;;;15.60;99.90;;;;;;8374388;28;20224;-70
2022/09/22 10:16:20;;;;;;;2.30;1.10;;;15.10;99.90;;;;;;8386033;28;20212;-70
2022/09/22 10:20:27;;;;;;;3.40;0.90;;;15.00;99.90;;;;;;8401721;28;20185;-69
2022/09/22 10:24:31;;;;;;;1.07;0.57;;;15.10;99.90;;;;;;8380012;28;20192;-69
2022/09/22 10:28:33;;;;;;;2.27;0.67;;;15.00;99.90;;;;;;8388143;28;20169;-69
2022/09/22 10:32:34;;;;;;;1.13;0.70;;;14.30;99.90;;;;;;8381741;28;20246;-69
2022/09/22 10:36:42;;;;;;;2.97;0.60;;;13.70;99.90;;;;;;8382624;28;20295;-69
2022/09/22 10:40:47;;;;;;;2.00;0.90;;;13.70;1.00;;;;;;8400769;28;20176;-69
2022/09/22 10:44:51;;;;;;;1.87;0.83;;;13.60;1.00;;;;;;8379859;28;20193;-69
2022/09/22 10:48:59;;;;;;;1.70;0.80;;;13.50;1.00;;;;;;8382795;28;20181;-69
2022/09/22 10:53:20;;;;;;;1.00;0.60;;;13.60;1.00;;;;;;8382234;28;20213;-69
2022/09/22 10:57:36;;;;;;;1.10;0.50;;;13.70;99.90;;;;;;8380585;28;20177;-70
2022/09/22 11:01:49;;;;;;;1.07;0.43;;;14.20;99.90;;;;;;8383359;28;20173;-69
2022/09/22 11:15:17;;;;;;;0.83;0.50;;;15.10;99.90;;;;;;8380158;28;20231;-70
2022/09/22 11:19:51;;;;;;;0.77;0.43;;;14.90;99.90;;;;;;8378040;28;20193;-69
2022/09/22 11:24:18;;;;;;;1.60;0.40;;;14.90;99.90;;;;;;8381623;28;20195;-68
2022/09/22 11:28:38;;;;;;;1.60;0.60;;;15.20;99.90;;;;;;8382679;28;20257;-72
2022/09/22 11:33:20;;;;;;;2.60;0.80;;;15.50;99.90;;;;;;8385559;28;20181;-69
2022/09/22 11:37:41;;;;;;;1.80;0.40;;;15.90;96.40;;;;;;8385786;28;20181;-69
2022/09/22 11:41:54;;;;;;;0.67;0.40;;;16.30;22.20;;;;;;8373629;28;20192;-70
2022/09/22 11:46:10;;;;;;;2.17;0.50;;;16.30;17.80;;;;;;8380767;28;20185;-68
2022/09/22 11:50:30;;;;;;;0.73;0.37;;;16.40;16.60;;;;;;8382482;28;20201;-69
2022/09/22 11:54:55;;;;;;;1.93;0.83;;;16.40;28.30;;;;;;8373274;28;20307;-68
2022/09/22 11:59:01;;;;;;;1.03;0.60;;;16.50;17.10;;;;;;8383469;28;20205;-69
2022/09/22 12:03:24;;;;;;;0.37;0.20;;;16.40;12.80;;;;;;8381065;28;20193;-69
2022/09/22 12:07:36;;;;;;;0.50;0.20;;;16.40;1.00;;;;;;8397458;28;20184;-69
2022/09/22 12:11:39;;;;;;;1.60;0.50;;;16.40;1.00;;;;;;8395104;28;20213;-69
2022/09/22 12:15:48;;;;;;;1.33;0.60;;;16.50;1.00;;;;;;8380831;28;20201;-69
2022/09/22 12:20:05;;;;;;;0.67;0.40;;;16.60;1.00;;;;;;8398683;28;20240;-69
2022/09/22 12:24:10;;;;;;;3.50;1.93;;;16.70;1.00;;;;;;8372275;28;20191;-69
2022/09/22 12:28:17;;;;;;;3.77;1.40;;;16.70;1.00;;;;;;8380325;28;20192;-69
2022/09/22 12:32:32;;;;;;;1.80;1.30;;;16.50;1.00;;;;;;8371291;28;20371;-69
2022/09/22 12:36:37;;;;;;;4.20;2.57;;;16.40;1.00;;;;;;8382560;28;20215;-70
2022/09/22 12:40:42;;;;;;;3.53;2.40;;;16.40;1.00;;;;;;8380020;28;20220;-69
2022/09/22 12:44:56;;;;;;;1.37;0.70;;;16.40;1.00;;;;;;8380824;28;20177;-70
2022/09/22 12:48:57;;;;;;;0.50;0.30;;;16.30;1.00;;;;;;8380227;28;20186;-69
2022/09/22 12:53:04;;;;;;;1.23;0.40;;;16.20;1.00;;;;;;8372813;28;20185;-69
2022/09/22 12:57:08;;;;;;;0.63;0.50;;;16.00;1.00;;;;;;8381915;28;20280;-69
2022/09/22 13:01:33;;;;;;;1.17;0.57;;;15.80;1.00;;;;;;8380933;28;20182;-69
2022/09/22 13:05:36;;;;;;;2.10;0.57;;;15.70;1.00;;;;;;8382534;28;20185;-69
2022/09/22 13:09:37;;;;;;;0.93;0.37;;;15.70;1.00;;;;;;8375004;28;20185;-71
2022/09/22 13:13:49;;;;;;;0.30;0.27;;;15.60;1.00;;;;;;8380322;28;20308;-69
2022/09/22 13:17:50;;;;;;;1.33;0.80;;;15.70;1.00;;;;;;8384807;28;20177;-69
2022/09/22 13:21:51;;;;;;;1.33;0.50;;;15.90;1.00;;;;;;8382439;28;20187;-69
2022/09/22 13:25:52;;;;;;;1.10;0.60;;;16.00;1.00;;;;;;8385238;28;20181;-70
2022/09/22 13:29:57;;;;;;;0.60;0.40;;;16.10;1.00;;;;;;8387946;28;20271;-69
2022/09/22 13:34:28;;;;;;;2.57;0.70;;;16.10;1.00;;;;;;8383907;28;20216;-70
2022/09/22 13:38:31;;;;;;;1.27;0.60;;;16.30;1.00;;;;;;8388042;28;20181;-69
2022/09/22 13:42:32;;;;;;;1.67;0.67;;;16.40;1.00;;;;;;8384948;28;20181;-70
2022/09/22 13:46:48;;;;;;;0.90;0.50;;;16.50;1.00;;;;;;8390703;28;20177;-70
2022/09/22 13:50:56;;;;;;;1.27;0.60;;;16.40;1.00;;;;;;8385562;28;20185;-70
2022/09/22 13:55:32;;;;;;;1.00;0.50;;;16.20;1.00;;;;;;8385672;28;20247;-70
2022/09/22 13:59:40;;;;;;;2.43;0.77;;;16.10;1.00;;;;;;8388617;28;20215;-69
2022/09/22 14:03:41;;;;;;;1.87;1.23;;;16.00;1.00;;;;;;8375209;28;20223;-70
2022/09/22 14:07:43;;;;;;;2.60;1.63;;;16.10;1.00;;;;;;8401914;28;20185;-69
2022/09/22 14:11:44;;;;;;;1.17;0.70;;;16.00;1.00;;;;;;8387262;28;20292;-70
2022/09/22 14:15:46;;;;;;;0.97;0.53;;;15.80;1.00;;;;;;8388177;28;20238;-69
2022/09/22 14:19:58;;;;;;;1.03;0.37;;;15.80;1.00;;;;;;8388347;28;20185;-70
2022/09/22 14:24:00;;;;;;;0.77;0.30;;;15.60;1.00;;;;;;8383832;28;20189;-69
2022/09/22 14:28:01;;;;;;;1.53;1.00;;;15.50;1.00;;;;;;8387538;28;20239;-69
2022/09/22 14:32:15;;;;;;;0.80;0.53;;;15.60;1.00;;;;;;8383675;28;20189;-70
2022/09/22 14:36:19;;;;;;;1.13;0.30;;;15.50;1.00;;;;;;8386957;28;20269;-70
2022/09/22 14:40:23;;;;;;;0.70;0.50;;;15.20;1.00;;;;;;8384843;28;20184;-71
2022/09/22 14:44:41;;;;;;;2.60;1.20;;;14.80;1.00;;;;;;8385819;28;20264;-68
2022/09/22 14:48:41;;;;;;;3.60;1.70;;;14.50;1.00;;;;;;8388780;28;20182;-70
2022/09/22 14:52:51;;;;;;;2.10;1.50;;;14.30;27.10;;;;;;8378903;28;20185;-69
2022/09/22 14:56:52;;;;;;;1.03;0.67;;;14.30;50.50;;;;;;8385438;28;20198;-69
2022/09/22 15:05:32;;;;;;;1.83;1.20;;;13.80;29.30;;;;;;8388158;28;20187;-69
2022/09/22 15:09:39;;;;;;;2.17;1.57;;;13.70;72.30;;;;;;8382701;28;20270;-69
2022/09/22 15:13:45;;;;;;;3.07;1.20;;;13.80;77.90;;;;;;8383867;28;20238;-71
2022/09/22 15:22:13;;;;;;;2.70;1.63;;;13.90;99.30;;;;;;8381996;28;20242;-69
2022/09/22 15:26:23;;;;;;;2.80;1.30;;;14.00;92.90;;;;;;8379473;28;20322;-69
2022/09/22 15:30:30;;;;;;;2.13;1.03;;;14.10;69.80;;;;;;8396155;28;20196;-69
2022/09/22 15:34:31;;;;;;;2.53;0.93;;;14.20;46.50;;;;;;8382308;28;20232;-69
2022/09/22 15:38:36;;;;;;;1.67;0.80;;;14.20;46.00;;;;;;8381979;28;20736;-69
2022/09/22 15:42:37;;;;;;;2.07;1.13;;;14.20;50.60;;;;;;8383298;28;20276;-70
2022/09/22 15:46:39;;;;;;;2.20;1.03;;;14.10;99.90;;;;;;8382911;28;20217;-69
2022/09/22 15:50:39;;;;;;;0.73;0.50;;;14.10;99.90;;;;;;8383751;28;20192;-69
2022/09/22 15:54:40;;;;;;;0.93;0.50;;;13.90;99.90;;;;;;8378600;28;20205;-70
2022/09/22 15:58:42;;;;;;;0.70;0.40;;;13.80;99.90;;;;;;8383808;28;20189;-69
2022/09/22 16:02:47;;;;;;;1.00;0.50;;;13.70;99.90;;;;;;8383503;28;20176;-68
2022/09/22 16:06:53;;;;;;;0.93;0.30;;;13.60;1.00;;;;;;8382140;28;20280;-69
2022/09/22 16:11:03;;;;;;;1.80;0.57;;;13.50;1.00;;;;;;8396668;28;20703;-68
2022/09/22 16:15:05;;;;;;;1.23;0.67;;;13.30;1.00;;;;;;8399250;28;20217;-69
2022/09/22 16:19:12;;;;;;;0.93;0.40;;;13.10;14.00;;;;;;8379286;28;20188;-68
2022/09/22 16:23:13;;;;;;;0.60;0.40;;;12.90;99.40;;;;;;8379908;28;20181;-69
2022/09/22 16:27:14;;;;;;;0.80;0.30;;;12.70;99.90;;;;;;8383280;28;20350;-69
2022/09/22 16:31:17;;;;;;;1.13;0.50;;;12.40;99.90;;;;;;8382136;28;20248;-69
2022/09/22 16:35:23;;;;;;;0.67;0.50;;;12.20;99.90;;;;;;8380280;28;20212;-69
2022/09/22 16:39:24;;;;;;;0.60;0.37;;;11.80;99.90;;;;;;8379469;28;20200;-69
2022/09/22 16:43:24;;;;;;;0.90;0.57;;;11.50;1.00;;;;;;8380677;28;20184;-69
2022/09/22 16:47:27;;;;;;;1.20;0.40;;;11.20;22.90;;;;;;8383947;28;20209;-68
2022/09/22 16:51:29;;;;;;;0.80;0.60;;;10.90;99.90;;;;;;8382324;28;20250;-69
2022/09/22 16:55:33;;;;;;;0.73;0.50;;;10.60;1.00;;;;;;8382675;28;20266;-69
2022/09/22 16:59:36;;;;;;;1.23;0.60;;;10.30;99.90;;;;;;8381961;28;20191;-69
2022/09/22 17:03:40;;;;;;;1.53;0.53;;;10.00;1.00;;;;;;8379306;28;20186;-69
2022/09/22 17:07:44;;;;;;;1.03;0.70;;;9.80;99.90;;;;;;8380030;28;20273;-70
2022/09/22 17:11:47;;;;;;;2.13;0.80;;;9.50;1.00;;;;;;8376475;28;20205;-69
2022/09/22 17:15:48;;;;;;;0.97;0.73;;;9.20;99.90;;;;;;8373692;28;20210;-69
2022/09/22 17:19:49;;;;;;;0.63;0.53;;;9.00;1.00;;;;;;8380988;28;20185;-69
2022/09/22 17:23:59;;;;;;;1.00;0.80;;;8.80;99.90;;;;;;8380505;28;20242;-69
2022/09/22 17:28:00;;;;;;;1.33;1.00;;;8.60;99.90;;;;;;8378654;28;20277;-69
2022/09/22 17:32:04;;;;;;;2.53;1.20;;;8.40;1.00;;;;;;8380231;28;20196;-69
2022/09/22 17:36:05;;;;;;;2.83;0.80;;;8.20;1.00;;;;;;8381598;28;20217;-69
2022/09/22 17:40:07;;;;;;;1.70;1.27;;;8.00;99.90;;;;;;8382242;28;20272;-69
2022/09/22 17:44:09;;;;;;;1.83;1.20;;;7.80;1.00;;;;;;8382902;28;20188;-69
2022/09/22 17:56:33;;;;;;;2.43;1.80;;;7.50;1.00;;;;;;8386433;28;20213;-69
2022/09/22 18:00:34;;;;;;;1.80;1.40;;;7.40;1.00;;;;;;8382343;28;20186;-69
2022/09/22 18:04:39;;;;;;;2.50;1.50;;;7.20;1.00;;;;;;8382868;28;20188;-68
2022/09/22 18:08:43;;;;;;;4.07;1.50;;;7.10;73.00;;;;;;8385099;28;20269;-69
2022/09/22 18:12:43;;;;;;;1.93;1.40;;;7.00;79.20;;;;;;8385278;28;20216;-69
2022/09/22 18:16:45;;;;;;;2.10;1.60;;;6.90;99.90;;;;;;8386126;28;20215;-69
2022/09/22 18:20:47;;;;;;;1.87;1.43;;;6.70;99.90;;;;;;8386787;28;20182;-68
2022/09/22 18:24:49;;;;;;;2.23;1.60;;;6.60;99.90;;;;;;8406538;28;20279;-67
2022/09/22 18:28:51;;;;;;;2.50;1.60;;;6.50;99.90;;;;;;8387913;28;20189;-69
2022/09/22 18:32:52;;;;;;;3.47;1.40;;;6.40;99.90;;;;;;8385430;28;20181;-68
2022/09/22 18:36:53;;;;;;;1.70;1.30;;;6.30;1.00;;;;;;8385182;28;20208;-68
2022/09/22 18:40:53;;;;;;;2.07;1.60;;;6.20;1.00;;;;;;8386766;28;20266;-68
2022/09/22 18:44:54;;;;;;;1.60;1.30;;;6.10;1.00;;;;;;8384779;28;20267;-68
2022/09/22 18:49:08;;;;;;;1.87;1.37;;;6.00;1.00;;;;;;8385800;28;20189;-68
2022/09/22 18:53:13;;;;;;;1.20;1.00;;;5.90;1.00;;;;;;8383737;28;20185;-68
2022/09/22 18:57:14;;;;;;;1.60;1.27;;;5.80;1.00;;;;;;8382230;28;20185;-68
2022/09/22 19:01:17;;;;;;;1.83;1.20;;;5.80;29.30;;;;;;8380469;28;20250;-68
2022/09/22 19:05:18;;;;;;;1.40;1.27;;;5.70;40.50;;;;;;8384150;28;20187;-68
2022/09/22 19:09:20;;;;;;;1.73;0.90;;;5.60;13.80;;;;;;8385806;28;20192;-68
2022/09/22 19:13:22;;;;;;;2.10;1.03;;;5.50;1.00;;;;;;8385180;28;20260;-68
2022/09/22 19:17:23;;;;;;;3.07;1.00;;;5.30;38.50;;;;;;8382900;28;20591;-70
2022/09/22 19:21:24;;;;;;;2.73;1.00;;;5.20;80.40;;;;;;8381279;28;20434;-68
2022/09/22 19:25:25;;;;;;;2.40;0.70;;;5.10;99.90;;;;;;8385040;28;20212;-69
2022/09/22 19:29:27;;;;;;;0.70;0.57;;;5.00;99.90;;;;;;8376285;28;20196;-68
2022/09/22 19:33:28;;;;;;;1.00;0.70;;;5.00;99.90;;;;;;8385407;28;20217;-68
2022/09/22 19:37:29;;;;;;;1.63;1.03;;;4.90;99.90;;;;;;8374651;28;20184;-69
2022/09/22 19:41:30;;;;;;;3.07;0.90;;;4.90;99.90;;;;;;8385491;28;20497;-69
2022/09/22 19:45:31;;;;;;;0.90;0.70;;;4.80;99.90;;;;;;8387925;28;20260;-69
2022/09/22 19:49:31;;;;;;;0.80;0.70;;;4.80;99.90;;;;;;8385038;28;20185;-69
2022/09/22 19:53:33;;;;;;;0.90;0.63;;;4.80;99.90;;;;;;8380810;28;20197;-69
2022/09/22 19:57:39;;;;;;;3.90;2.40;;;4.70;99.90;;;;;;8383986;28;20177;-69
2022/09/22 20:01:41;;;;;;;4.00;1.90;;;4.70;99.90;;;;;;8384773;28;20255;-69
2022/09/22 20:05:43;;;;;;;3.30;1.90;;;4.60;99.90;;;;;;8379892;28;20472;-68
2022/09/22 20:09:44;;;;;;;2.43;1.40;;;4.60;99.90;;;;;;8380221;28;20185;-68
2022/09/22 20:18:04;;;;;;;2.20;1.33;;;4.40;99.90;;;;;;8383468;28;20224;-68
2022/09/22 20:22:24;;;;;;;2.57;0.87;;;4.30;99.90;;;;;;8377449;28;20188;-68
2022/09/22 20:26:25;;;;;;;1.87;1.30;;;4.20;99.90;;;;;;8381207;28;20185;-68
2022/09/22 20:30:26;;;;;;;1.47;1.07;;;4.10;99.90;;;;;;8380458;28;20220;-68
2022/09/22 20:34:28;;;;;;;1.97;0.97;;;4.10;99.90;;;;;;8378556;28;20229;-68
2022/09/22 20:38:30;;;;;;;2.07;1.00;;;4.00;99.90;;;;;;8380557;28;20211;-68
2022/09/22 20:42:31;;;;;;;1.80;1.20;;;3.90;99.90;;;;;;8380458;28;20235;-68
2022/09/22 20:46:32;;;;;;;4.07;1.10;;;3.90;99.90;;;;;;8379847;28;20234;-68
2022/09/22 20:50:33;;;;;;;1.53;0.80;;;3.80;99.90;;;;;;8394981;28;20239;-67
2022/09/22 20:54:35;;;;;;;0.97;0.87;;;3.70;99.90;;;;;;8377609;28;20209;-68
2022/09/22 20:58:44;;;;;;;1.87;0.97;;;3.70;99.90;;;;;;8380690;28;20181;-69
2022/09/22 21:02:46;;;;;;;2.17;0.77;;;3.60;99.90;;;;;;8379829;28;20613;-69
2022/09/22 21:06:46;;;;;;;0.97;0.80;;;3.60;99.90;;;;;;8384791;28;20296;-69
2022/09/22 21:10:47;;;;;;;1.83;1.40;;;3.50;99.90;;;;;;8379845;28;20187;-68
2022/09/22 21:14:48;;;;;;;1.70;1.27;;;3.50;99.90;;;;;;8380311;28;20259;-68
2022/09/22 21:18:50;;;;;;;2.23;1.30;;;3.40;99.90;;;;;;8379567;28;20224;-68
2022/09/22 21:22:51;;;;;;;1.30;1.00;;;3.40;99.90;;;;;;8378737;28;20189;-68
2022/09/22 21:26:52;;;;;;;1.53;1.07;;;3.40;99.90;;;;;;8380696;28;20196;-69
2022/09/22 21:30:56;;;;;;;2.30;1.43;;;3.30;99.90;;;;;;8381100;28;20180;-68
2022/09/22 21:34:57;;;;;;;2.83;2.20;;;3.20;99.90;;;;;;8382117;28;20201;-69
2022/09/22 21:38:59;;;;;;;2.03;1.53;;;3.20;99.90;;;;;;8381203;28;20177;-68
2022/09/22 21:43:00;;;;;;;2.80;1.93;;;3.20;99.90;;;;;;8384835;28;20187;-68
2022/09/22 21:47:01;;;;;;;3.77;2.27;;;3.20;99.90;;;;;;8386347;28;20228;-69
2022/09/22 21:51:13;;;;;;;3.93;2.87;;;3.20;99.90;;;;;;8388957;28;20185;-69
2022/09/22 21:55:14;;;;;;;4.47;2.57;;;3.10;99.90;;;;;;8385545;28;20224;-69
2022/09/22 21:59:15;;;;;;;4.93;2.87;;;3.10;99.90;;;;;;8387784;28;20183;-68
2022/09/22 22:03:32;;;;;;;2.97;1.90;;;3.00;99.90;;;;;;8387830;28;20173;-67
2022/09/22 22:07:33;;;;;;;2.00;1.73;;;2.90;99.90;;;;;;8381033;28;20184;-67
2022/09/22 22:11:48;;;;;;;2.17;1.50;;;2.80;99.90;;;;;;8384643;28;20220;-68